Time;durP1;ratioP1;P1;durP2;ratioP2;P2;SDS_P1;SDS_P2;PMS_P1;PMS_P2;Temp;Humidity;BMP_temperature;BMP_pressure;BME280_temperature;BME280_humidity;BME280_pressure;Samples;Min_cycle;Max_cycle;Signal;HPM_P1;HPM_P2
2024/01/22 00:01:44;;;;;;;6.30;3.17;;;9.40;39.30;;;;;;5051202;28;20177;-62
2024/01/22 00:04:09;;;;;;;5.00;3.50;;;9.20;39.40;;;;;;5049466;28;20474;-61
2024/01/22 00:06:42;;;;;;;4.70;3.07;;;9.30;39.70;;;;;;5043432;28;20446;-60
2024/01/22 00:09:07;;;;;;;5.20;3.10;;;9.30;39.30;;;;;;5049266;28;20306;-62
2024/01/22 00:11:33;;;;;;;4.97;3.13;;;9.20;39.00;;;;;;5046633;28;20530;-61
2024/01/22 00:13:59;;;;;;;6.13;3.00;;;9.10;39.00;;;;;;5047534;28;20193;-62
2024/01/22 00:16:26;;;;;;;3.57;3.37;;;9.10;38.90;;;;;;5041183;28;20196;-61
2024/01/22 00:18:51;;;;;;;3.60;3.30;;;9.20;39.60;;;;;;5044333;28;20858;-61
2024/01/22 00:21:17;;;;;;;5.73;3.80;;;9.40;39.80;;;;;;5042741;28;20465;-61
2024/01/22 00:23:43;;;;;;;5.40;4.03;;;9.70;39.90;;;;;;5044309;28;20217;-61
2024/01/22 00:26:13;;;;;;;5.03;3.70;;;9.80;39.80;;;;;;5042937;28;20418;-62
2024/01/22 00:28:40;;;;;;;5.27;4.03;;;9.80;39.70;;;;;;5044626;28;20668;-61
2024/01/22 00:31:06;;;;;;;5.47;4.20;;;9.70;39.40;;;;;;5038705;28;20868;-62
2024/01/22 00:33:31;;;;;;;4.20;3.80;;;9.60;39.70;;;;;;5041787;28;20506;-60
2024/01/22 00:35:57;;;;;;;5.37;4.07;;;9.40;40.20;;;;;;5042748;28;20205;-60
2024/01/22 00:38:22;;;;;;;6.03;4.93;;;9.40;40.80;;;;;;5042008;28;20188;-62
2024/01/22 00:40:48;;;;;;;5.93;4.17;;;9.30;41.00;;;;;;5041238;28;20605;-58
2024/01/22 00:43:14;;;;;;;6.50;4.43;;;9.40;41.20;;;;;;5042081;28;20223;-59
2024/01/22 00:45:39;;;;;;;4.87;3.93;;;9.20;41.00;;;;;;5040882;28;20225;-59
2024/01/22 00:48:05;;;;;;;5.33;4.10;;;9.20;41.30;;;;;;5044114;28;20271;-59
2024/01/22 00:50:31;;;;;;;5.33;4.30;;;9.40;41.30;;;;;;5042230;28;20243;-59
2024/01/22 00:52:56;;;;;;;4.87;4.43;;;9.50;41.50;;;;;;5042430;28;20431;-61
2024/01/22 00:55:22;;;;;;;6.67;4.57;;;9.50;41.20;;;;;;5044211;28;20208;-58
2024/01/22 00:57:48;;;;;;;6.57;5.17;;;9.60;41.20;;;;;;5041270;28;20182;-60
2024/01/22 01:00:15;;;;;;;7.60;5.43;;;9.40;41.20;;;;;;5046355;28;20259;-59
2024/01/22 01:02:40;;;;;;;7.30;5.17;;;9.10;42.00;;;;;;5043826;28;20251;-61
2024/01/22 01:05:06;;;;;;;8.40;5.10;;;9.10;42.60;;;;;;5041007;28;20455;-60
2024/01/22 01:07:32;;;;;;;5.20;4.70;;;9.00;42.70;;;;;;5040900;28;20201;-59
2024/01/22 01:09:58;;;;;;;8.60;5.67;;;8.90;42.90;;;;;;5040983;28;20209;-61
2024/01/22 01:12:23;;;;;;;6.03;5.40;;;8.70;43.80;;;;;;5043638;28;20275;-61
2024/01/22 01:14:49;;;;;;;6.03;5.40;;;8.60;44.10;;;;;;5041550;28;20562;-60
2024/01/22 01:17:14;;;;;;;7.20;6.20;;;8.60;44.60;;;;;;5040400;28;20686;-61
2024/01/22 01:19:40;;;;;;;8.47;6.20;;;8.30;45.10;;;;;;5040610;28;20181;-60
2024/01/22 01:22:06;;;;;;;8.50;6.27;;;8.00;46.10;;;;;;5043054;28;20173;-58
2024/01/22 01:24:31;;;;;;;7.67;5.67;;;8.10;46.50;;;;;;5042806;28;20797;-59
2024/01/22 01:26:57;;;;;;;9.07;5.87;;;8.20;46.30;;;;;;5042095;28;20236;-61
2024/01/22 01:29:22;;;;;;;9.30;6.90;;;8.30;46.20;;;;;;5041053;28;20186;-61
2024/01/22 01:31:48;;;;;;;10.17;7.30;;;8.30;46.10;;;;;;5041332;28;20192;-59
2024/01/22 01:34:13;;;;;;;10.40;7.80;;;8.30;46.20;;;;;;5041611;28;20264;-59
2024/01/22 01:36:39;;;;;;;8.73;6.70;;;8.20;46.40;;;;;;5042901;28;20284;-59
2024/01/22 01:39:04;;;;;;;9.13;6.60;;;8.10;46.50;;;;;;5039382;28;20271;-61
2024/01/22 01:41:30;;;;;;;8.80;6.30;;;7.90;47.10;;;;;;5040587;28;20177;-59
2024/01/22 01:43:56;;;;;;;7.33;6.57;;;7.70;47.70;;;;;;5041206;28;20244;-58
2024/01/22 01:46:21;;;;;;;8.73;6.40;;;7.80;48.20;;;;;;5043163;28;20470;-59
2024/01/22 01:48:48;;;;;;;7.50;5.40;;;7.70;47.60;;;;;;5043739;28;20188;-59
2024/01/22 01:51:15;;;;;;;5.37;4.70;;;7.60;47.70;;;;;;5040494;28;21512;-61
2024/01/22 01:53:41;;;;;;;8.30;5.37;;;7.70;47.70;;;;;;5044023;28;20583;-60
2024/01/22 01:56:07;;;;;;;5.80;5.07;;;7.70;47.60;;;;;;5045112;28;20484;-60
2024/01/22 01:58:33;;;;;;;6.40;5.20;;;7.90;47.30;;;;;;5044941;28;20440;-61
2024/01/22 02:00:59;;;;;;;7.80;6.17;;;8.00;46.90;;;;;;5043979;28;20992;-58
2024/01/22 02:03:25;;;;;;;6.50;4.00;;;8.10;46.80;;;;;;5048013;28;20216;-60
2024/01/22 02:05:51;;;;;;;6.90;4.50;;;8.10;46.60;;;;;;5041459;28;20991;-60
2024/01/22 02:08:16;;;;;;;5.63;4.50;;;8.10;46.40;;;;;;5038825;28;20200;-57
2024/01/22 02:10:46;;;;;;;5.70;4.20;;;8.00;46.30;;;;;;5039949;28;20609;-61
2024/01/22 02:13:12;;;;;;;6.77;4.33;;;8.10;46.20;;;;;;5041998;28;20291;-60
2024/01/22 02:15:37;;;;;;;7.37;5.50;;;8.10;46.80;;;;;;5041382;28;20974;-60
2024/01/22 02:18:03;;;;;;;6.93;4.93;;;7.80;46.80;;;;;;5040767;28;20181;-61
2024/01/22 02:20:29;;;;;;;5.33;4.70;;;7.60;47.80;;;;;;5040055;28;20204;-60
2024/01/22 02:23:00;;;;;;;9.10;5.70;;;7.50;48.30;;;;;;5039516;28;20204;-60
2024/01/22 02:25:25;;;;;;;7.37;5.73;;;7.60;48.20;;;;;;5040544;28;20427;-59
2024/01/22 02:27:51;;;;;;;9.80;6.40;;;7.60;48.80;;;;;;5039131;28;20604;-60
2024/01/22 02:30:16;;;;;;;7.63;6.20;;;7.60;48.20;;;;;;5039611;28;20212;-61
2024/01/22 02:32:42;;;;;;;5.97;5.17;;;7.70;48.20;;;;;;5040530;28;20200;-60
2024/01/22 02:35:07;;;;;;;6.67;5.63;;;7.80;48.00;;;;;;5039605;28;20679;-61
2024/01/22 02:37:33;;;;;;;7.33;5.97;;;7.80;48.10;;;;;;5037228;28;20196;-61
2024/01/22 02:39:59;;;;;;;7.03;5.70;;;7.70;48.10;;;;;;5042737;28;20177;-58
2024/01/22 02:42:24;;;;;;;12.20;6.40;;;7.80;48.30;;;;;;5038559;28;20351;-61
2024/01/22 02:44:50;;;;;;;6.83;5.50;;;7.70;48.30;;;;;;5038795;28;20225;-62
2024/01/22 02:47:15;;;;;;;6.60;5.13;;;7.40;48.80;;;;;;5040775;28;20232;-62
2024/01/22 02:49:41;;;;;;;6.97;5.53;;;7.40;49.10;;;;;;5038221;28;20185;-60
2024/01/22 02:52:06;;;;;;;8.40;6.03;;;7.10;49.40;;;;;;5040226;28;20181;-60
2024/01/22 02:54:32;;;;;;;6.70;5.43;;;7.10;49.90;;;;;;5038954;28;20193;-60
2024/01/22 02:56:57;;;;;;;6.90;5.27;;;7.20;49.80;;;;;;5040339;28;20212;-61
2024/01/22 02:59:23;;;;;;;7.50;5.53;;;7.10;49.60;;;;;;5040735;28;20445;-62
2024/01/22 03:01:48;;;;;;;6.83;5.10;;;7.20;49.60;;;;;;5037776;28;20192;-60
2024/01/22 03:04:14;;;;;;;8.13;5.87;;;7.10;49.50;;;;;;5039118;28;20212;-60
2024/01/22 03:06:39;;;;;;;6.70;5.57;;;6.90;50.10;;;;;;5038606;28;20363;-60
2024/01/22 03:09:05;;;;;;;5.80;5.20;;;6.90;50.70;;;;;;5040712;28;20177;-61
2024/01/22 03:11:31;;;;;;;5.50;4.90;;;7.00;50.60;;;;;;5039005;28;20185;-60
2024/01/22 03:13:57;;;;;;;6.23;4.83;;;6.90;50.40;;;;;;5041985;28;20200;-62
2024/01/22 03:16:22;;;;;;;10.43;6.20;;;6.80;50.80;;;;;;5038690;28;20215;-61
2024/01/22 03:18:48;;;;;;;6.37;5.60;;;6.70;50.90;;;;;;5045613;28;20207;-60
2024/01/22 03:21:14;;;;;;;8.83;5.50;;;6.90;51.00;;;;;;5039967;28;20238;-57
2024/01/22 03:23:43;;;;;;;7.37;4.90;;;6.90;50.70;;;;;;5042657;28;20212;-58
2024/01/22 03:26:08;;;;;;;7.60;4.90;;;6.60;51.00;;;;;;5046046;28;20520;-59
2024/01/22 03:28:34;;;;;;;6.70;5.53;;;6.50;51.60;;;;;;5043444;28;20562;-60
2024/01/22 03:31:00;;;;;;;5.67;4.70;;;6.30;51.90;;;;;;5042281;28;20766;-59
2024/01/22 03:33:25;;;;;;;8.57;4.53;;;6.30;52.20;;;;;;5037787;28;20615;-58
2024/01/22 03:35:51;;;;;;;6.27;4.73;;;6.30;52.00;;;;;;5037450;28;20884;-60
2024/01/22 03:38:16;;;;;;;7.73;5.07;;;6.10;52.40;;;;;;5041664;28;20687;-59
2024/01/22 03:40:42;;;;;;;9.00;5.73;;;6.10;52.60;;;;;;5039041;28;20292;-58
2024/01/22 03:43:07;;;;;;;6.63;4.83;;;6.00;53.00;;;;;;5040576;28;20309;-60
2024/01/22 03:45:33;;;;;;;7.23;5.60;;;6.10;53.30;;;;;;5045059;28;20683;-59
2024/01/22 03:47:58;;;;;;;7.37;5.17;;;6.30;53.00;;;;;;5045321;28;20721;-60
2024/01/22 03:50:24;;;;;;;5.13;4.53;;;6.40;52.60;;;;;;5045113;28;20185;-60
2024/01/22 03:52:49;;;;;;;6.63;4.47;;;6.50;52.50;;;;;;5044609;28;20686;-60
2024/01/22 03:55:15;;;;;;;7.00;5.00;;;6.40;52.50;;;;;;5039641;28;20220;-60
2024/01/22 03:57:41;;;;;;;8.10;5.50;;;6.50;52.40;;;;;;5043993;28;20173;-61
2024/01/22 04:00:07;;;;;;;7.20;5.47;;;6.70;52.30;;;;;;5040125;28;20185;-59
2024/01/22 04:02:33;;;;;;;9.93;5.93;;;6.10;53.10;;;;;;5044715;28;20307;-61
2024/01/22 04:04:59;;;;;;;7.20;4.63;;;6.20;53.70;;;;;;5044659;28;20443;-60
2024/01/22 04:07:25;;;;;;;11.13;4.90;;;6.00;53.90;;;;;;5040844;28;20466;-61
2024/01/22 04:09:50;;;;;;;5.63;4.33;;;6.20;53.80;;;;;;5040799;28;20463;-60
2024/01/22 04:12:16;;;;;;;6.53;4.83;;;6.10;53.80;;;;;;5046816;28;20196;-61
2024/01/22 04:14:41;;;;;;;8.00;4.53;;;6.10;53.80;;;;;;5034390;28;20239;-60
2024/01/22 04:17:07;;;;;;;6.10;4.57;;;6.10;53.60;;;;;;5038073;28;20204;-59
2024/01/22 04:19:32;;;;;;;6.30;4.20;;;6.30;53.60;;;;;;5041544;28;20280;-61
2024/01/22 04:21:58;;;;;;;6.80;4.20;;;6.10;53.70;;;;;;5045290;28;20184;-59
2024/01/22 04:24:23;;;;;;;7.73;5.17;;;6.30;53.90;;;;;;5046605;28;20185;-59
2024/01/22 04:26:49;;;;;;;6.40;4.97;;;6.60;53.40;;;;;;5040896;28;20609;-59
2024/01/22 04:29:14;;;;;;;5.83;4.50;;;6.70;53.00;;;;;;5045005;28;20304;-60
2024/01/22 04:31:40;;;;;;;4.97;4.07;;;6.70;52.70;;;;;;5035470;28;20181;-60
2024/01/22 04:34:06;;;;;;;6.70;4.80;;;6.60;52.70;;;;;;5048294;28;20195;-60
2024/01/22 04:36:31;;;;;;;7.90;4.13;;;6.60;52.90;;;;;;5043556;28;20275;-57
2024/01/22 04:38:57;;;;;;;8.80;6.23;;;6.30;53.30;;;;;;5040300;28;20234;-59
2024/01/22 04:41:23;;;;;;;7.40;4.83;;;6.20;53.80;;;;;;5045445;28;20183;-60
2024/01/22 04:43:48;;;;;;;6.07;4.90;;;6.20;54.00;;;;;;5040560;28;20279;-58
2024/01/22 04:46:14;;;;;;;8.80;4.00;;;6.20;54.10;;;;;;5046025;28;20664;-56
2024/01/22 04:48:39;;;;;;;5.80;4.20;;;6.20;54.10;;;;;;5044021;28;20219;-60
2024/01/22 04:51:05;;;;;;;7.57;4.33;;;5.90;54.50;;;;;;5047710;28;20588;-60
2024/01/22 04:53:31;;;;;;;4.60;3.43;;;5.70;55.00;;;;;;5046722;28;20209;-59
2024/01/22 04:55:56;;;;;;;6.27;5.67;;;5.50;55.40;;;;;;5040494;28;20792;-58
2024/01/22 04:58:22;;;;;;;6.00;3.77;;;5.40;56.10;;;;;;5043478;28;20195;-58
2024/01/22 05:00:48;;;;;;;4.17;3.77;;;5.70;55.80;;;;;;5040453;28;20943;-59
2024/01/22 05:03:13;;;;;;;4.73;4.00;;;5.70;55.50;;;;;;5041827;28;20552;-59
2024/01/22 05:05:39;;;;;;;5.13;3.63;;;5.80;55.40;;;;;;5040899;28;20251;-59
2024/01/22 05:08:05;;;;;;;5.00;3.73;;;5.90;55.10;;;;;;5041027;28;20243;-60
2024/01/22 05:10:31;;;;;;;4.90;4.03;;;5.90;55.00;;;;;;5043694;28;20439;-60
2024/01/22 05:12:56;;;;;;;4.93;4.00;;;5.80;55.40;;;;;;5041743;28;20453;-59
2024/01/22 05:15:22;;;;;;;5.30;4.17;;;6.00;55.40;;;;;;5042282;28;20185;-61
2024/01/22 05:17:48;;;;;;;5.63;5.00;;;6.10;54.80;;;;;;5041693;28;20193;-60
2024/01/22 05:20:13;;;;;;;5.13;4.33;;;6.00;55.60;;;;;;5041919;28;20189;-59
2024/01/22 05:22:39;;;;;;;6.97;4.47;;;6.00;55.30;;;;;;5042290;28;20221;-59
2024/01/22 05:25:05;;;;;;;5.47;3.50;;;6.00;55.50;;;;;;5041785;28;20195;-61
2024/01/22 05:27:31;;;;;;;6.60;4.63;;;5.90;55.40;;;;;;5042161;28;20466;-59
2024/01/22 05:29:57;;;;;;;6.03;4.70;;;6.00;55.60;;;;;;5042337;28;20449;-60
2024/01/22 05:32:23;;;;;;;5.00;4.00;;;6.20;55.60;;;;;;5041177;28;20191;-61
2024/01/22 05:34:49;;;;;;;5.73;3.80;;;6.40;55.10;;;;;;5040316;28;20197;-60
2024/01/22 05:37:14;;;;;;;6.40;4.13;;;6.40;54.70;;;;;;5040724;28;20516;-60
2024/01/22 05:39:40;;;;;;;6.83;4.30;;;6.50;54.80;;;;;;5041216;28;20260;-60
2024/01/22 05:42:06;;;;;;;7.53;6.13;;;6.60;54.70;;;;;;5042741;28;20214;-58
2024/01/22 05:44:31;;;;;;;6.13;4.30;;;6.70;54.50;;;;;;5047985;28;20204;-58
2024/01/22 05:46:57;;;;;;;4.17;3.63;;;6.50;54.80;;;;;;5042135;28;20201;-59
2024/01/22 05:49:23;;;;;;;5.10;3.77;;;6.50;54.90;;;;;;5043468;28;20534;-61
2024/01/22 05:51:49;;;;;;;5.20;4.20;;;6.70;54.70;;;;;;5044980;28;20189;-60
2024/01/22 05:54:15;;;;;;;5.43;4.87;;;6.80;54.60;;;;;;5049631;28;20435;-61
2024/01/22 05:56:41;;;;;;;7.00;5.50;;;6.80;54.40;;;;;;5038802;28;20213;-60
2024/01/22 05:59:06;;;;;;;11.80;6.70;;;6.80;54.40;;;;;;5043244;28;20439;-60
2024/01/22 06:01:32;;;;;;;6.30;5.10;;;6.40;55.20;;;;;;5047600;28;20253;-58
2024/01/22 06:03:58;;;;;;;5.60;5.10;;;6.40;55.70;;;;;;5043336;28;20298;-60
2024/01/22 06:06:24;;;;;;;3.80;3.40;;;6.40;56.00;;;;;;5046506;28;20212;-58
2024/01/22 06:08:50;;;;;;;4.33;3.70;;;6.70;55.60;;;;;;5049123;28;20874;-59
2024/01/22 06:11:17;;;;;;;7.10;3.90;;;7.00;55.90;;;;;;5044409;28;20865;-60
2024/01/22 06:13:43;;;;;;;8.70;3.70;;;7.20;54.90;;;;;;5041594;28;20486;-61
2024/01/22 06:16:10;;;;;;;4.83;4.30;;;7.40;54.50;;;;;;5040416;28;20904;-60
2024/01/22 06:18:36;;;;;;;4.20;3.80;;;7.70;54.00;;;;;;5040965;28;20432;-62
2024/01/22 06:21:03;;;;;;;5.00;4.30;;;7.70;53.40;;;;;;5040623;28;21025;-61
2024/01/22 06:23:28;;;;;;;5.77;3.70;;;8.00;55.60;;;;;;5042791;28;20476;-60
2024/01/22 06:25:56;;;;;;;4.70;3.03;;;8.30;54.50;;;;;;5037758;28;20501;-58
2024/01/22 06:28:23;;;;;;;6.13;4.10;;;8.60;52.60;;;;;;5047018;28;20267;-61
2024/01/22 06:30:48;;;;;;;5.20;3.83;;;8.90;53.30;;;;;;5039355;28;20450;-60
2024/01/22 06:33:14;;;;;;;5.03;4.40;;;9.30;51.90;;;;;;5039165;28;20823;-60
2024/01/22 06:35:39;;;;;;;5.83;3.50;;;9.20;50.90;;;;;;5039550;28;20200;-62
2024/01/22 06:38:05;;;;;;;4.63;3.90;;;9.20;50.40;;;;;;5039667;28;20567;-61
2024/01/22 06:40:33;;;;;;;5.67;4.20;;;9.20;50.40;;;;;;5040879;28;20180;-60
2024/01/22 06:42:58;;;;;;;5.63;4.40;;;9.20;50.40;;;;;;5039650;28;20473;-60
2024/01/22 06:45:24;;;;;;;4.47;4.07;;;9.30;50.60;;;;;;5040604;28;20431;-60
2024/01/22 06:47:49;;;;;;;4.70;3.90;;;9.40;50.10;;;;;;5035567;28;20200;-61
2024/01/22 06:50:15;;;;;;;5.83;4.07;;;9.00;50.30;;;;;;5046168;28;20268;-61
2024/01/22 06:52:40;;;;;;;4.60;3.83;;;9.00;50.30;;;;;;5045297;28;20227;-61
2024/01/22 06:55:07;;;;;;;5.67;4.97;;;8.90;50.50;;;;;;5038403;28;20234;-60
2024/01/22 06:57:33;;;;;;;6.80;5.40;;;8.80;50.90;;;;;;5043254;28;20231;-60
2024/01/22 06:59:59;;;;;;;8.17;5.40;;;8.70;51.00;;;;;;5042615;28;20463;-60
2024/01/22 07:02:26;;;;;;;4.80;4.30;;;8.60;51.20;;;;;;5046096;28;20208;-59
2024/01/22 07:04:53;;;;;;;6.53;4.80;;;8.80;51.10;;;;;;5037678;28;20544;-60
2024/01/22 07:07:18;;;;;;;5.70;3.87;;;9.10;50.70;;;;;;5038129;28;20451;-59
2024/01/22 07:09:44;;;;;;;4.90;3.00;;;9.30;50.10;;;;;;5039057;28;20433;-60
2024/01/22 07:12:09;;;;;;;2.70;2.50;;;9.30;49.20;;;;;;5035609;28;20212;-61
2024/01/22 07:14:35;;;;;;;2.90;2.10;;;9.50;48.90;;;;;;5035175;28;20255;-60
2024/01/22 07:17:03;;;;;;;2.47;2.20;;;9.60;48.40;;;;;;5042996;28;20212;-61
2024/01/22 07:19:28;;;;;;;2.90;1.80;;;9.80;48.30;;;;;;5045205;28;20644;-61
2024/01/22 07:21:54;;;;;;;1.80;1.67;;;9.80;47.80;;;;;;5038730;28;20418;-59
2024/01/22 07:24:20;;;;;;;4.13;1.90;;;9.90;47.40;;;;;;5040903;28;20224;-61
2024/01/22 07:26:46;;;;;;;1.60;1.50;;;10.10;46.40;;;;;;5042860;28;20208;-62
2024/01/22 07:29:12;;;;;;;1.90;1.70;;;10.30;46.10;;;;;;5043626;28;20976;-61
2024/01/22 07:31:37;;;;;;;2.00;1.60;;;10.50;45.60;;;;;;5044440;28;20185;-61
2024/01/22 07:34:03;;;;;;;2.30;1.77;;;10.70;45.50;;;;;;5043501;28;20185;-59
2024/01/22 07:36:29;;;;;;;2.47;2.20;;;10.70;45.80;;;;;;5044869;28;20208;-61
2024/01/22 07:38:56;;;;;;;2.50;1.70;;;10.90;45.20;;;;;;5046610;28;20558;-61
2024/01/22 07:41:21;;;;;;;2.70;2.00;;;10.90;45.00;;;;;;5038254;28;20189;-57
2024/01/22 07:43:47;;;;;;;7.00;2.20;;;11.00;44.70;;;;;;5038065;28;20533;-59
2024/01/22 07:46:13;;;;;;;2.90;1.80;;;11.00;44.70;;;;;;5043692;28;20699;-60
2024/01/22 07:48:39;;;;;;;3.50;1.80;;;11.00;44.70;;;;;;5041390;28;20188;-60
2024/01/22 07:51:05;;;;;;;1.70;1.60;;;11.00;44.90;;;;;;5040653;28;20231;-60
2024/01/22 07:53:30;;;;;;;3.40;2.33;;;11.10;45.20;;;;;;5043569;28;20455;-61
2024/01/22 07:55:56;;;;;;;5.10;2.50;;;11.00;44.90;;;;;;5041124;28;20556;-61
2024/01/22 07:58:22;;;;;;;3.57;2.47;;;11.00;45.30;;;;;;5046098;28;20197;-61
2024/01/22 08:00:47;;;;;;;3.27;2.13;;;11.00;45.20;;;;;;5040724;28;20211;-59
2024/01/22 08:03:13;;;;;;;4.30;2.00;;;11.00;45.50;;;;;;5036681;28;20220;-60
2024/01/22 08:05:38;;;;;;;3.03;1.67;;;11.20;45.40;;;;;;5037749;28;20209;-62
2024/01/22 08:08:06;;;;;;;2.07;1.80;;;11.20;45.40;;;;;;5043806;28;20182;-62
2024/01/22 08:10:32;;;;;;;4.43;2.20;;;11.30;45.30;;;;;;5042953;28;20178;-61
2024/01/22 08:12:57;;;;;;;3.23;2.20;;;11.30;45.30;;;;;;5043017;28;20459;-60
2024/01/22 08:15:23;;;;;;;5.03;2.20;;;11.30;45.30;;;;;;5047377;28;22202;-60
2024/01/22 08:17:48;;;;;;;6.20;2.50;;;11.40;45.40;;;;;;5036141;28;20612;-59
2024/01/22 08:20:15;;;;;;;2.57;1.50;;;11.30;45.50;;;;;;5046795;28;20192;-61
2024/01/22 08:22:43;;;;;;;1.90;1.80;;;11.30;45.60;;;;;;5040394;28;20683;-61
2024/01/22 08:25:08;;;;;;;2.57;2.17;;;11.40;45.70;;;;;;5051796;28;20458;-61
2024/01/22 08:27:34;;;;;;;2.70;1.90;;;11.40;45.70;;;;;;5044640;28;20834;-60
2024/01/22 08:30:00;;;;;;;3.60;1.73;;;11.50;45.80;;;;;;5047919;28;20272;-60
2024/01/22 08:32:25;;;;;;;6.40;2.40;;;11.60;45.90;;;;;;5043120;28;20188;-60
2024/01/22 08:34:51;;;;;;;2.70;1.60;;;11.60;46.10;;;;;;5044920;28;20192;-61
2024/01/22 08:37:16;;;;;;;3.63;1.97;;;11.70;46.00;;;;;;5042040;28;20209;-59
2024/01/22 08:39:42;;;;;;;2.77;1.70;;;11.60;46.10;;;;;;5039330;28;20192;-61
2024/01/22 08:42:08;;;;;;;6.10;1.80;;;11.70;46.50;;;;;;5035479;28;20183;-62
2024/01/22 08:44:34;;;;;;;3.00;2.10;;;11.70;46.60;;;;;;5046159;28;20199;-59
2024/01/22 08:46:59;;;;;;;2.60;1.90;;;11.80;46.60;;;;;;5043329;28;20463;-60
2024/01/22 08:49:25;;;;;;;3.30;2.00;;;11.80;46.70;;;;;;5042759;28;20184;-59
2024/01/22 08:51:50;;;;;;;3.53;1.80;;;11.90;46.90;;;;;;5044833;28;20196;-61
2024/01/22 08:54:16;;;;;;;3.13;1.80;;;11.80;47.10;;;;;;5041327;28;20212;-59
2024/01/22 08:56:41;;;;;;;2.30;1.80;;;11.90;47.20;;;;;;5047009;28;20213;-60
2024/01/22 08:59:08;;;;;;;3.33;2.10;;;11.90;47.30;;;;;;5042746;28;20627;-59
2024/01/22 09:01:34;;;;;;;4.77;2.10;;;12.00;47.40;;;;;;5041276;28;20177;-58
2024/01/22 09:03:59;;;;;;;2.90;1.57;;;12.20;47.50;;;;;;5043361;28;20999;-60
2024/01/22 09:06:25;;;;;;;4.80;1.90;;;12.30;47.50;;;;;;5046106;28;20212;-60
2024/01/22 09:08:51;;;;;;;3.20;1.90;;;12.30;47.80;;;;;;5043011;28;20193;-60
2024/01/22 09:11:17;;;;;;;2.23;1.97;;;12.10;48.50;;;;;;5045748;28;20189;-60
2024/01/22 09:13:43;;;;;;;1.90;1.70;;;12.00;49.50;;;;;;5040564;28;20224;-59
2024/01/22 09:16:13;;;;;;;5.63;1.63;;;12.00;50.70;;;;;;5044559;28;21071;-59
2024/01/22 09:18:39;;;;;;;2.63;1.83;;;11.90;51.10;;;;;;5038840;28;20237;-60
2024/01/22 09:21:04;;;;;;;4.93;1.77;;;12.10;51.40;;;;;;5044024;28;20475;-59
2024/01/22 09:23:30;;;;;;;3.43;1.50;;;12.20;51.60;;;;;;5039455;28;20255;-62
2024/01/22 09:25:55;;;;;;;3.37;1.37;;;12.20;52.70;;;;;;5037010;28;20204;-60
2024/01/22 09:28:22;;;;;;;2.23;1.20;;;12.10;53.80;;;;;;5043085;28;20192;-61
2024/01/22 09:30:48;;;;;;;2.10;1.37;;;12.20;54.10;;;;;;5040427;28;20268;-60
2024/01/22 09:33:13;;;;;;;1.77;1.47;;;12.30;54.60;;;;;;5037515;28;20504;-60
2024/01/22 09:35:40;;;;;;;2.20;1.20;;;12.20;54.80;;;;;;5041747;28;20639;-60
2024/01/22 09:38:06;;;;;;;1.10;1.00;;;12.30;55.30;;;;;;5044055;28;20177;-61
2024/01/22 09:40:33;;;;;;;1.53;0.97;;;12.30;55.70;;;;;;5049783;28;20419;-60
2024/01/22 09:43:03;;;;;;;1.20;1.10;;;12.50;56.30;;;;;;5049064;28;20247;-60
2024/01/22 09:45:31;;;;;;;1.87;1.10;;;12.60;55.70;;;;;;5044654;28;20463;-59
2024/01/22 09:47:57;;;;;;;2.00;1.17;;;12.60;56.20;;;;;;5042316;28;20431;-61
2024/01/22 09:50:22;;;;;;;2.10;1.20;;;12.70;56.20;;;;;;5040056;28;20966;-62
2024/01/22 09:52:52;;;;;;;2.00;1.00;;;12.70;57.00;;;;;;5043121;28;21034;-60
2024/01/22 09:55:19;;;;;;;1.83;0.90;;;12.80;57.00;;;;;;5044774;28;20180;-61
2024/01/22 09:57:46;;;;;;;1.10;1.00;;;12.80;57.20;;;;;;5046174;28;20492;-61
2024/01/22 10:00:20;;;;;;;0.70;0.70;;;13.00;57.90;;;;;;5032789;28;20447;-60
2024/01/22 10:02:46;;;;;;;0.83;0.83;;;13.00;57.20;;;;;;5035085;28;20475;-61
2024/01/22 10:05:12;;;;;;;1.20;1.10;;;13.10;57.30;;;;;;5040815;28;20502;-61
2024/01/22 10:07:38;;;;;;;1.23;1.13;;;13.30;57.20;;;;;;5043170;28;20188;-62
2024/01/22 10:10:03;;;;;;;2.30;1.00;;;13.50;56.50;;;;;;5040955;28;20446;-60
2024/01/22 10:12:29;;;;;;;0.93;0.90;;;13.40;56.90;;;;;;5044175;28;20196;-60
2024/01/22 10:14:55;;;;;;;1.10;1.00;;;13.20;56.70;;;;;;5045915;28;20192;-61
2024/01/22 10:17:21;;;;;;;3.33;1.10;;;13.20;56.90;;;;;;5039328;28;20224;-60
2024/01/22 10:19:49;;;;;;;1.03;0.93;;;13.20;57.00;;;;;;5042774;28;20677;-61
2024/01/22 10:22:21;;;;;;;1.37;1.10;;;13.40;57.60;;;;;;5046024;28;20454;-61
2024/01/22 10:25:00;;;;;;;2.07;1.20;;;13.40;57.80;;;;;;5039500;28;20967;-61
2024/01/22 10:27:26;;;;;;;0.80;0.80;;;13.30;57.80;;;;;;5041925;28;20466;-60
2024/01/22 10:29:52;;;;;;;1.77;0.83;;;13.30;58.10;;;;;;5040711;28;20444;-60
2024/01/22 10:32:21;;;;;;;2.03;1.17;;;13.40;58.50;;;;;;5039536;28;20443;-59
2024/01/22 10:34:50;;;;;;;2.60;1.30;;;13.50;58.70;;;;;;5040431;28;20436;-60
2024/01/22 10:37:17;;;;;;;1.53;0.93;;;13.40;58.90;;;;;;5044180;28;20867;-60
2024/01/22 10:39:44;;;;;;;1.00;1.00;;;13.40;59.30;;;;;;5039183;28;20774;-61
2024/01/22 10:42:11;;;;;;;0.87;0.87;;;13.40;59.30;;;;;;5043863;28;20733;-60
2024/01/22 10:44:38;;;;;;;1.50;0.93;;;13.50;59.20;;;;;;5040400;28;20475;-61
2024/01/22 10:47:05;;;;;;;2.80;1.00;;;13.60;59.50;;;;;;5037587;28;20447;-59
2024/01/22 10:49:32;;;;;;;1.53;1.43;;;13.70;59.60;;;;;;5047623;28;20442;-59
2024/01/22 10:51:59;;;;;;;1.03;0.97;;;13.80;59.50;;;;;;5044179;28;20427;-61
2024/01/22 10:54:25;;;;;;;1.20;1.10;;;13.70;60.00;;;;;;5040496;28;20545;-62
2024/01/22 10:57:08;;;;;;;0.90;0.90;;;13.70;60.00;;;;;;5042040;28;20468;-61
2024/01/22 10:59:36;;;;;;;1.80;1.00;;;13.80;59.90;;;;;;5040791;28;20854;-61
2024/01/22 11:02:04;;;;;;;1.77;0.70;;;13.90;59.80;;;;;;5043191;28;20533;-60
2024/01/22 11:04:33;;;;;;;1.30;1.07;;;14.10;59.50;;;;;;5042234;28;20478;-60
2024/01/22 11:07:02;;;;;;;1.37;0.70;;;14.00;59.20;;;;;;5046191;28;20962;-61
2024/01/22 11:09:34;;;;;;;1.30;1.20;;;13.90;59.30;;;;;;5044426;28;20465;-61
2024/01/22 11:12:06;;;;;;;1.80;1.23;;;14.00;59.30;;;;;;5040540;28;20443;-59
2024/01/22 11:14:33;;;;;;;1.73;1.20;;;14.20;59.20;;;;;;5040005;28;20962;-60
2024/01/22 11:16:59;;;;;;;1.37;1.13;;;14.30;59.00;;;;;;5041734;28;20454;-60
2024/01/22 11:19:26;;;;;;;1.60;0.97;;;14.20;59.00;;;;;;5045910;28;20423;-61
2024/01/22 11:21:53;;;;;;;1.00;0.90;;;14.30;59.10;;;;;;5038788;28;20244;-61
2024/01/22 11:24:20;;;;;;;0.80;0.80;;;14.30;59.00;;;;;;5044622;28;20481;-60
2024/01/22 11:27:03;;;;;;;0.70;0.70;;;14.30;59.20;;;;;;5038658;28;20460;-60
2024/01/22 11:29:29;;;;;;;1.10;1.00;;;14.40;59.30;;;;;;5042884;28;20471;-61
2024/01/22 11:31:56;;;;;;;0.70;0.70;;;14.50;59.50;;;;;;5046565;28;20439;-61
2024/01/22 11:34:40;;;;;;;0.80;0.77;;;14.40;59.30;;;;;;5045856;28;20437;-62
2024/01/22 11:37:07;;;;;;;2.40;1.30;;;14.50;59.20;;;;;;5035329;28;20814;-62
2024/01/22 11:39:33;;;;;;;2.07;1.20;;;14.50;59.70;;;;;;5041355;28;20467;-60
2024/01/22 11:41:59;;;;;;;1.00;0.70;;;14.50;59.80;;;;;;5039524;28;20474;-58
2024/01/22 11:44:26;;;;;;;1.00;0.80;;;14.50;59.80;;;;;;5037004;28;20227;-61
2024/01/22 11:47:10;;;;;;;0.83;0.70;;;14.60;59.60;;;;;;5041204;28;20482;-61
2024/01/22 11:49:39;;;;;;;1.57;1.10;;;14.50;60.40;;;;;;5037118;28;20431;-62
2024/01/22 11:52:11;;;;;;;5.27;1.33;;;14.50;62.60;;;;;;5042752;28;20431;-60
2024/01/22 11:54:37;;;;;;;2.50;1.00;;;14.80;62.40;;;;;;5043859;28;20423;-61
2024/01/22 11:57:03;;;;;;;0.80;0.80;;;14.70;61.60;;;;;;5040584;28;20457;-61
2024/01/22 11:59:29;;;;;;;1.63;1.20;;;14.60;61.50;;;;;;5040862;28;20462;-60
2024/01/22 12:02:11;;;;;;;2.57;1.63;;;14.70;61.40;;;;;;5043891;28;20496;-59
2024/01/22 12:04:37;;;;;;;1.20;1.10;;;14.60;60.90;;;;;;5036204;28;21116;-61
2024/01/22 12:07:02;;;;;;;1.87;1.10;;;14.60;60.90;;;;;;5040436;28;20545;-61
2024/01/22 12:09:35;;;;;;;1.27;0.90;;;14.80;60.40;;;;;;5038461;28;20188;-62
2024/01/22 12:12:04;;;;;;;2.93;1.87;;;14.60;60.30;;;;;;5034490;28;20550;-60
2024/01/22 12:14:30;;;;;;;1.47;1.37;;;14.70;60.50;;;;;;5046025;28;20524;-61
2024/01/22 12:17:02;;;;;;;0.93;0.80;;;14.80;60.10;;;;;;5045966;28;20473;-60
2024/01/22 12:19:29;;;;;;;0.97;0.90;;;14.80;60.20;;;;;;5041315;28;20432;-61
2024/01/22 12:21:54;;;;;;;0.83;0.83;;;14.90;59.90;;;;;;5039869;28;20442;-60
2024/01/22 12:24:20;;;;;;;1.10;1.00;;;15.10;59.80;;;;;;5044064;28;20474;-60
2024/01/22 12:26:46;;;;;;;1.47;1.10;;;15.00;59.60;;;;;;5045590;28;20321;-61
2024/01/22 12:29:24;;;;;;;1.07;0.97;;;14.80;60.00;;;;;;5043503;28;20684;-61
2024/01/22 12:32:02;;;;;;;1.40;0.80;;;14.60;60.80;;;;;;5040083;28;20283;-61
2024/01/22 12:34:28;;;;;;;1.77;1.10;;;14.60;61.60;;;;;;5046382;28;20451;-61
2024/01/22 12:36:53;;;;;;;0.90;0.90;;;14.60;61.80;;;;;;5042838;28;20442;-59
2024/01/22 12:39:20;;;;;;;1.27;0.90;;;14.80;61.80;;;;;;5045262;28;20661;-60
2024/01/22 12:41:45;;;;;;;2.03;0.93;;;14.80;62.00;;;;;;5049070;28;20216;-61
2024/01/22 12:44:13;;;;;;;1.53;0.80;;;14.80;62.60;;;;;;5042693;28;20836;-61
2024/01/22 12:46:39;;;;;;;1.20;1.10;;;14.70;62.50;;;;;;5047378;28;20200;-61
2024/01/22 12:49:04;;;;;;;1.13;1.00;;;14.60;63.20;;;;;;5047684;28;20493;-61